createdAt,value
2023-01-17T00:00:10.262Z,92449.44
2023-01-17T00:01:07.749Z,92457.22
2023-01-17T00:02:04.284Z,92453.72
2023-01-17T00:03:00.824Z,92441.09
2023-01-17T00:04:15.775Z,92446.34
2023-01-17T00:05:33.676Z,92452.81
2023-01-17T00:06:48.954Z,92453.03
2023-01-17T00:08:04.153Z,92448.34
2023-01-17T00:09:19.186Z,92440.56
2023-01-17T00:10:17.940Z,92446.69
2023-01-17T00:11:14.514Z,92439.00
2023-01-17T00:12:11.129Z,92440.00
2023-01-17T00:13:07.605Z,92438.47
2023-01-17T00:14:04.045Z,92434.28
2023-01-17T00:15:00.921Z,92428.59
2023-01-17T00:15:57.489Z,92416.28
2023-01-17T00:16:54.204Z,92406.41
2023-01-17T00:17:51.422Z,92417.16
2023-01-17T00:19:07.856Z,92425.09
2023-01-17T00:20:22.875Z,92422.34
2023-01-17T00:21:37.884Z,92408.72
2023-01-17T00:22:53.283Z,92425.97
2023-01-17T00:24:08.322Z,92424.66
2023-01-17T00:25:23.904Z,92446.94
2023-01-17T00:26:20.500Z,92446.94
2023-01-17T00:27:16.926Z,92434.97
2023-01-17T00:28:13.399Z,92425.75
2023-01-17T00:29:09.774Z,92426.28
2023-01-17T00:30:06.586Z,92421.56
2023-01-17T00:31:03.886Z,92422.00
2023-01-17T00:32:00.331Z,92428.69
2023-01-17T00:32:56.723Z,92446.25
2023-01-17T00:33:53.130Z,92444.47
2023-01-17T00:34:49.514Z,92432.53
2023-01-17T00:35:46.019Z,92428.50
2023-01-17T00:36:42.479Z,92431.97
2023-01-17T00:37:38.918Z,92439.22
2023-01-17T00:38:39.111Z,92451.50
2023-01-17T00:39:35.571Z,92456.00
2023-01-17T00:40:32.932Z,92450.09
2023-01-17T00:41:29.344Z,92438.69
2023-01-17T00:42:25.738Z,92431.44
2023-01-17T00:43:41.598Z,92443.59
2023-01-17T00:44:56.654Z,92462.00
2023-01-17T00:46:11.929Z,92467.06
2023-01-17T00:47:27.056Z,92469.34
2023-01-17T00:48:41.963Z,92455.34
2023-01-17T00:49:56.972Z,92474.41
2023-01-17T00:51:12.287Z,92481.69
2023-01-17T00:52:27.231Z,92477.50
2023-01-17T00:53:42.110Z,92465.44
2023-01-17T00:54:57.054Z,92445.91
2023-01-17T00:56:12.083Z,92465.00
2023-01-17T00:57:27.182Z,92480.03
2023-01-17T00:58:42.243Z,92480.47
2023-01-17T00:59:57.548Z,92440.53
2023-01-17T01:01:13.048Z,92430.34
2023-01-17T01:02:28.617Z,92448.56
2023-01-17T01:03:43.954Z,92456.91
2023-01-17T01:04:59.307Z,92444.94
2023-01-17T01:06:14.232Z,92463.81
2023-01-17T01:07:29.447Z,92464.47
2023-01-17T01:08:46.295Z,92461.75
2023-01-17T01:10:01.467Z,92480.03
2023-01-17T01:11:16.789Z,92468.97
2023-01-17T01:12:31.717Z,92446.47
2023-01-17T01:13:47.646Z,92450.00
2023-01-17T01:15:02.451Z,92461.06
2023-01-17T01:16:23.652Z,92478.41
2023-01-17T01:17:38.777Z,92468.53
2023-01-17T01:18:53.674Z,92469.97
2023-01-17T01:20:08.863Z,92471.19
2023-01-17T01:21:23.867Z,92482.06
2023-01-17T01:22:39.029Z,92498.41
2023-01-17T01:23:53.937Z,92512.00
2023-01-17T01:25:08.764Z,92489.63
2023-01-17T01:26:23.851Z,92486.66
2023-01-17T01:27:38.874Z,92481.91
2023-01-17T01:28:53.743Z,92496.41
2023-01-17T01:30:08.624Z,92463.72
2023-01-17T01:31:23.918Z,92447.81
2023-01-17T01:32:38.900Z,92437.03
2023-01-17T01:33:35.381Z,92428.16
2023-01-17T01:34:32.014Z,92434.06
2023-01-17T01:35:28.622Z,92448.13
2023-01-17T01:36:25.104Z,92435.41
2023-01-17T01:37:24.165Z,92420.88
2023-01-17T01:38:24.503Z,92429.00
2023-01-17T01:39:21.002Z,92448.78
2023-01-17T01:40:17.989Z,92454.25
2023-01-17T01:41:14.472Z,92450.88
2023-01-17T01:42:14.612Z,92445.81
2023-01-17T01:43:12.248Z,92423.31
2023-01-17T01:44:34.772Z,92412.75
2023-01-17T01:45:32.386Z,92430.09
2023-01-17T01:46:36.134Z,92409.38
2023-01-17T01:47:37.063Z,92407.06
2023-01-17T01:48:48.711Z,92415.06
2023-01-17T01:49:45.233Z,92406.53
2023-01-17T01:50:41.807Z,92392.13
2023-01-17T01:51:40.168Z,92395.00
2023-01-17T01:52:39.995Z,92395.13
2023-01-17T01:53:38.791Z,92382.13
2023-01-17T01:54:37.694Z,92382.41
2023-01-17T01:55:39.876Z,92378.63
2023-01-17T01:56:36.607Z,92376.63
2023-01-17T01:57:37.963Z,92378.06
2023-01-17T01:58:36.929Z,92397.69
2023-01-17T01:59:34.000Z,92383.88
2023-01-17T02:00:34.603Z,92383.22
2023-01-17T02:01:31.555Z,92381.78
2023-01-17T02:02:30.181Z,92380.22
2023-01-17T02:03:29.568Z,92378.06
2023-01-17T02:04:27.607Z,92391.78
2023-01-17T02:05:25.521Z,92409.47
2023-01-17T02:06:25.053Z,92406.59
2023-01-17T02:07:25.523Z,92388.72
2023-01-17T02:08:23.408Z,92372.34
2023-01-17T02:09:20.181Z,92372.09
2023-01-17T02:10:16.879Z,92383.91
2023-01-17T02:11:13.427Z,92399.09
2023-01-17T02:12:10.368Z,92404.94
2023-01-17T02:13:08.104Z,92394.84
2023-01-17T02:14:04.893Z,92401.00
2023-01-17T02:15:02.414Z,92409.25
2023-01-17T02:16:17.463Z,92407.59
2023-01-17T02:17:32.372Z,92398.00
2023-01-17T02:18:43.383Z,92385.88
2023-01-17T02:19:39.823Z,92384.50
2023-01-17T02:20:42.082Z,92394.56
2023-01-17T02:21:44.116Z,92395.38
2023-01-17T02:22:55.800Z,92397.91
2023-01-17T02:24:07.283Z,92390.38
2023-01-17T02:25:03.808Z,92411.94
2023-01-17T02:26:12.346Z,92412.78
2023-01-17T02:27:22.260Z,92400.81
2023-01-17T02:28:18.730Z,92396.34
2023-01-17T02:29:30.812Z,92397.41
2023-01-17T02:30:39.461Z,92392.22
2023-01-17T02:31:51.293Z,92395.88
2023-01-17T02:32:47.738Z,92395.06
2023-01-17T02:33:56.929Z,92401.63
2023-01-17T02:34:53.356Z,92411.56
2023-01-17T02:36:10.235Z,92423.09
2023-01-17T02:37:21.935Z,92406.00
2023-01-17T02:38:37.118Z,92402.78
2023-01-17T02:39:43.154Z,92395.31
2023-01-17T02:40:43.436Z,92395.09
2023-01-17T02:41:43.663Z,92391.44
2023-01-17T02:42:43.090Z,92385.56
2023-01-17T02:43:40.202Z,92383.69
2023-01-17T02:44:40.931Z,92378.13
2023-01-17T02:45:37.555Z,92374.88
2023-01-17T02:46:42.844Z,92373.72
2023-01-17T02:47:39.349Z,92377.00
2023-01-17T02:48:37.576Z,92391.78
2023-01-17T02:49:34.055Z,92384.28
2023-01-17T02:50:50.746Z,92388.53
2023-01-17T02:52:07.141Z,92388.13
2023-01-17T02:53:17.638Z,92381.56
2023-01-17T02:54:16.658Z,92387.91
2023-01-17T02:55:32.892Z,92381.69
2023-01-17T02:56:32.712Z,92293.53
2023-01-17T02:57:48.040Z,92366.97
2023-01-17T02:59:03.790Z,92362.56
2023-01-17T03:00:05.056Z,92365.09
2023-01-17T03:01:05.021Z,92370.03
2023-01-17T03:02:04.613Z,92370.59
2023-01-17T03:03:14.356Z,92378.19
2023-01-17T03:04:22.300Z,92373.31
2023-01-17T03:05:32.076Z,92365.59
2023-01-17T03:06:31.089Z,92367.16
2023-01-17T03:07:28.487Z,92361.59
2023-01-17T03:08:25.941Z,92358.72
2023-01-17T03:09:22.731Z,92368.06
2023-01-17T03:10:20.469Z,92368.16
2023-01-17T03:11:17.617Z,92371.72
2023-01-17T03:12:14.215Z,92362.06
2023-01-17T03:13:10.724Z,92367.03
2023-01-17T03:14:07.230Z,92359.19
2023-01-17T03:15:03.970Z,92360.94
2023-01-17T03:16:00.704Z,92356.34
2023-01-17T03:16:57.221Z,92369.53
2023-01-17T03:17:55.501Z,92360.69
2023-01-17T03:18:53.792Z,92358.19
2023-01-17T03:19:50.344Z,92354.22
2023-01-17T03:20:46.998Z,92348.72
2023-01-17T03:21:43.548Z,92358.59
2023-01-17T03:22:40.104Z,92366.75
2023-01-17T03:23:36.686Z,92352.78
2023-01-17T03:24:33.139Z,92352.59
2023-01-17T03:25:29.697Z,92350.03
2023-01-17T03:26:26.280Z,92360.94
2023-01-17T03:27:22.729Z,92358.00
2023-01-17T03:28:19.266Z,92359.69
2023-01-17T03:29:16.682Z,92354.25
2023-01-17T03:30:13.881Z,92360.25
2023-01-17T03:31:13.797Z,92366.97
2023-01-17T03:32:10.453Z,92359.88
2023-01-17T03:33:06.981Z,92367.72
2023-01-17T03:34:03.450Z,92373.16
2023-01-17T03:35:00.037Z,92369.09
2023-01-17T03:35:58.237Z,92373.00
2023-01-17T03:36:54.796Z,92368.91
2023-01-17T03:37:51.257Z,92354.44
2023-01-17T03:38:47.688Z,92364.16
2023-01-17T03:39:44.174Z,92373.19
2023-01-17T03:40:41.298Z,92374.78
2023-01-17T03:41:37.810Z,92351.88
2023-01-17T03:42:34.244Z,92349.28
2023-01-17T03:43:30.774Z,92356.06
2023-01-17T03:44:27.203Z,92355.47
2023-01-17T03:45:23.654Z,92352.31
2023-01-17T03:46:24.323Z,92341.78
2023-01-17T03:47:20.803Z,92348.72
2023-01-17T03:48:17.593Z,92339.16
2023-01-17T03:49:14.078Z,92348.34
2023-01-17T03:50:10.827Z,92366.66
2023-01-17T03:51:07.368Z,92361.28
2023-01-17T03:52:04.075Z,92358.22
2023-01-17T03:53:00.766Z,92357.03
2023-01-17T03:53:57.362Z,92364.13
2023-01-17T03:54:53.842Z,92360.91
2023-01-17T03:55:50.326Z,92374.53
2023-01-17T03:56:46.872Z,92375.63
2023-01-17T03:57:43.402Z,92375.53
2023-01-17T03:58:39.969Z,92364.56
2023-01-17T03:59:36.400Z,92364.44
2023-01-17T04:00:32.941Z,92372.28
2023-01-17T04:01:29.664Z,92372.97
2023-01-17T04:02:26.206Z,92378.56
2023-01-17T04:03:22.738Z,92376.41
2023-01-17T04:04:19.282Z,92376.50
2023-01-17T04:05:16.181Z,92378.47
2023-01-17T04:06:12.747Z,92382.28
2023-01-17T04:07:09.239Z,92381.59
2023-01-17T04:08:07.287Z,92369.41
2023-01-17T04:09:03.869Z,92381.19
2023-01-17T04:10:00.417Z,92389.34
2023-01-17T04:10:57.115Z,92386.53
2023-01-17T04:11:53.613Z,92387.63
2023-01-17T04:12:50.129Z,92373.91
2023-01-17T04:13:49.493Z,92372.88
2023-01-17T04:14:45.919Z,92379.47
2023-01-17T04:15:43.706Z,92376.97
2023-01-17T04:16:40.214Z,92377.25
2023-01-17T04:17:36.933Z,92379.53
2023-01-17T04:18:33.465Z,92389.66
2023-01-17T04:19:31.349Z,92395.09
2023-01-17T04:20:37.958Z,92394.81
2023-01-17T04:21:34.391Z,92400.06
2023-01-17T04:22:31.689Z,92401.78
2023-01-17T04:23:28.199Z,92412.09
2023-01-17T04:24:24.707Z,92395.78
2023-01-17T04:25:21.220Z,92411.50
2023-01-17T04:26:17.658Z,92413.69
2023-01-17T04:27:14.435Z,92412.72
2023-01-17T04:28:11.394Z,92418.97
2023-01-17T04:29:07.883Z,92411.63
2023-01-17T04:30:04.533Z,92411.56
2023-01-17T04:31:01.014Z,92402.50
2023-01-17T04:31:57.576Z,92397.97
2023-01-17T04:32:54.339Z,92414.34
2023-01-17T04:33:50.856Z,92419.97
2023-01-17T04:34:47.338Z,92417.41
2023-01-17T04:35:43.926Z,92402.69
2023-01-17T04:36:40.455Z,92404.25
2023-01-17T04:37:37.028Z,92405.78
2023-01-17T04:38:33.499Z,92422.88
2023-01-17T04:39:30.024Z,92423.78
2023-01-17T04:40:26.790Z,92420.13
2023-01-17T04:41:23.271Z,92412.09
2023-01-17T04:42:19.720Z,92417.06
2023-01-17T04:43:16.701Z,92414.31
2023-01-17T04:44:13.209Z,92400.84
2023-01-17T04:45:09.955Z,92405.66
2023-01-17T04:46:10.197Z,92394.91
2023-01-17T04:47:06.788Z,92388.78
2023-01-17T04:48:05.106Z,92394.47
2023-01-17T04:49:01.584Z,92398.53
2023-01-17T04:49:58.042Z,92396.50
2023-01-17T04:51:00.846Z,92397.47
2023-01-17T04:51:57.308Z,92397.97
2023-01-17T04:52:53.747Z,92397.34
2023-01-17T04:53:50.239Z,92410.97
2023-01-17T04:54:49.702Z,92416.59
2023-01-17T04:55:46.612Z,92412.84
2023-01-17T04:56:43.133Z,92408.34
2023-01-17T04:57:39.680Z,92416.34
2023-01-17T04:58:36.263Z,92408.66
2023-01-17T04:59:32.744Z,92399.97
2023-01-17T05:00:29.221Z,92399.97
2023-01-17T05:01:26.029Z,92404.25
2023-01-17T05:02:22.586Z,92407.59
2023-01-17T05:03:19.914Z,92412.88
2023-01-17T05:04:16.447Z,92431.09
2023-01-17T05:05:13.395Z,92430.25
2023-01-17T05:06:09.972Z,92426.09
2023-01-17T05:07:06.853Z,92428.47
2023-01-17T05:08:03.346Z,92435.53
2023-01-17T05:08:59.863Z,92440.81
2023-01-17T05:09:56.354Z,92445.06
2023-01-17T05:10:53.072Z,92440.44
2023-01-17T05:11:49.497Z,92448.16
2023-01-17T05:12:52.974Z,92446.97
2023-01-17T05:13:49.634Z,92459.81
2023-01-17T05:14:46.112Z,92446.34
2023-01-17T05:15:42.628Z,92440.28
2023-01-17T05:16:39.143Z,92438.44
2023-01-17T05:17:35.608Z,92441.47
2023-01-17T05:18:32.068Z,92443.19
2023-01-17T05:19:28.793Z,92443.84
2023-01-17T05:20:26.165Z,92438.56
2023-01-17T05:21:22.782Z,92436.63
2023-01-17T05:22:19.216Z,92442.88
2023-01-17T05:23:15.684Z,92445.28
2023-01-17T05:24:12.132Z,92417.47
2023-01-17T05:25:08.834Z,92446.63
2023-01-17T05:26:05.354Z,92451.00
2023-01-17T05:27:03.288Z,92442.19
2023-01-17T05:28:00.333Z,92444.56
2023-01-17T05:28:56.779Z,92445.81
2023-01-17T05:29:53.274Z,92436.16
2023-01-17T05:30:49.802Z,92435.41
2023-01-17T05:31:46.408Z,92428.38
2023-01-17T05:32:44.732Z,92423.34
2023-01-17T05:33:41.249Z,92430.59
2023-01-17T05:34:37.797Z,92434.81
2023-01-17T05:35:34.276Z,92434.44
2023-01-17T05:36:32.236Z,92421.03
2023-01-17T05:37:28.752Z,92420.72
2023-01-17T05:38:25.250Z,92429.97
2023-01-17T05:39:21.770Z,92428.16
2023-01-17T05:40:19.047Z,92421.47
2023-01-17T05:41:15.514Z,92417.50
2023-01-17T05:42:11.944Z,92413.50
2023-01-17T05:43:08.493Z,92420.72
2023-01-17T05:44:05.104Z,92424.50
2023-01-17T05:45:01.580Z,92422.53
2023-01-17T05:45:58.128Z,92418.84
2023-01-17T05:46:55.339Z,92428.31
2023-01-17T05:47:52.608Z,92434.03
2023-01-17T05:48:49.030Z,92434.59
2023-01-17T05:49:46.037Z,92431.53
2023-01-17T05:50:42.567Z,92425.06
2023-01-17T05:51:39.715Z,92419.00
2023-01-17T05:52:36.231Z,92415.50
2023-01-17T05:53:33.029Z,92414.50
2023-01-17T05:54:29.550Z,92417.41
2023-01-17T05:55:27.167Z,92415.78
2023-01-17T05:56:23.632Z,92419.88
2023-01-17T05:57:20.092Z,92411.41
2023-01-17T05:58:18.097Z,92403.81
2023-01-17T05:59:14.815Z,92402.63
2023-01-17T06:00:12.203Z,92403.25
2023-01-17T06:01:08.776Z,92400.06
2023-01-17T06:02:05.299Z,92395.53
2023-01-17T06:03:01.862Z,92389.34
2023-01-17T06:03:58.325Z,92383.38
2023-01-17T06:04:55.096Z,92375.56
2023-01-17T06:05:51.651Z,92379.19
2023-01-17T06:06:48.138Z,92377.50
2023-01-17T06:07:45.911Z,92378.34
2023-01-17T06:08:42.509Z,92375.47
2023-01-17T06:09:39.005Z,92372.16
2023-01-17T06:10:35.817Z,92366.28
2023-01-17T06:11:32.292Z,92366.88
2023-01-17T06:12:28.799Z,92370.03
2023-01-17T06:13:25.330Z,92375.03
2023-01-17T06:14:21.805Z,92372.06
2023-01-17T06:15:18.485Z,92365.25
2023-01-17T06:16:15.082Z,92371.63
2023-01-17T06:17:11.601Z,92375.13
2023-01-17T06:18:12.373Z,92379.22
2023-01-17T06:19:09.546Z,92379.28
2023-01-17T06:20:07.228Z,92379.28
2023-01-17T06:21:03.780Z,92367.00
2023-01-17T06:22:00.247Z,92376.19
2023-01-17T06:22:59.528Z,92388.47
2023-01-17T06:23:56.156Z,92384.69
2023-01-17T06:24:52.687Z,92381.94
2023-01-17T06:25:49.159Z,92385.97
2023-01-17T06:26:45.677Z,92385.84
2023-01-17T06:27:42.174Z,92390.59
2023-01-17T06:28:38.721Z,92388.53
2023-01-17T06:29:35.226Z,92398.63
2023-01-17T06:30:31.691Z,92403.75
2023-01-17T06:31:28.171Z,92414.63
2023-01-17T06:32:24.660Z,92417.19
2023-01-17T06:33:21.226Z,92417.53
2023-01-17T06:34:18.003Z,92419.06
2023-01-17T06:35:14.499Z,92430.41
2023-01-17T06:36:10.987Z,92421.97
2023-01-17T06:37:07.986Z,92416.75
2023-01-17T06:38:04.542Z,92417.09
2023-01-17T06:39:01.059Z,92411.91
2023-01-17T06:39:57.601Z,92416.53
2023-01-17T06:40:54.972Z,92416.28
2023-01-17T06:41:51.449Z,92421.47
2023-01-17T06:42:48.127Z,92414.84
2023-01-17T06:43:44.635Z,92416.44
2023-01-17T06:44:41.139Z,92421.09
2023-01-17T06:45:37.679Z,92414.91
2023-01-17T06:46:34.189Z,92422.59
2023-01-17T06:47:30.680Z,92423.41
2023-01-17T06:48:27.248Z,92418.28
2023-01-17T06:49:23.927Z,92421.28
2023-01-17T06:50:20.398Z,92424.50
2023-01-17T06:51:17.371Z,92433.91
2023-01-17T06:52:13.881Z,92430.88
2023-01-17T06:53:10.391Z,92423.78
2023-01-17T06:54:06.889Z,92423.34
2023-01-17T06:55:03.829Z,92426.75
2023-01-17T06:56:00.286Z,92421.47
2023-01-17T06:56:56.738Z,92419.81
2023-01-17T06:57:53.686Z,92415.34
2023-01-17T06:58:50.794Z,92425.69
2023-01-17T06:59:48.538Z,92426.44
2023-01-17T07:00:45.820Z,92436.69
2023-01-17T07:01:42.352Z,92433.97
2023-01-17T07:02:38.908Z,92426.59
2023-01-17T07:03:35.903Z,92433.78
2023-01-17T07:04:34.363Z,92430.34
2023-01-17T07:05:30.888Z,92436.75
2023-01-17T07:06:28.963Z,92434.31
2023-01-17T07:07:25.631Z,92444.41
2023-01-17T07:08:22.296Z,92449.00
2023-01-17T07:09:18.760Z,92440.94
2023-01-17T07:10:15.698Z,92443.16
2023-01-17T07:11:12.193Z,92438.63
2023-01-17T07:12:08.712Z,92435.31
2023-01-17T07:13:05.283Z,92436.13
2023-01-17T07:14:01.802Z,92424.38
2023-01-17T07:14:58.335Z,92421.22
2023-01-17T07:15:54.902Z,92427.38
2023-01-17T07:16:51.440Z,92420.38
2023-01-17T07:17:47.968Z,92432.97
2023-01-17T07:18:44.577Z,92431.56
2023-01-17T07:19:41.006Z,92429.75
2023-01-17T07:20:38.554Z,92431.13
2023-01-17T07:21:35.030Z,92425.63
2023-01-17T07:22:31.644Z,92422.59
2023-01-17T07:23:28.102Z,92419.13
2023-01-17T07:24:24.606Z,92420.72
2023-01-17T07:25:21.207Z,92421.47
2023-01-17T07:26:18.055Z,92425.63
2023-01-17T07:27:14.571Z,92427.09
2023-01-17T07:28:11.057Z,92417.75
2023-01-17T07:29:07.627Z,92427.09
2023-01-17T07:30:04.436Z,92429.88
2023-01-17T07:31:04.988Z,92423.03
2023-01-17T07:32:03.253Z,92424.31
2023-01-17T07:32:59.788Z,92423.69
2023-01-17T07:33:56.284Z,92433.75
2023-01-17T07:34:52.952Z,92434.13
2023-01-17T07:35:49.437Z,92430.22
2023-01-17T07:36:48.126Z,92434.53
2023-01-17T07:37:50.976Z,92437.19
2023-01-17T07:38:47.416Z,92439.47
2023-01-17T07:39:43.928Z,92441.56
2023-01-17T07:40:42.325Z,92447.97
2023-01-17T07:41:41.431Z,92447.31
2023-01-17T07:42:38.229Z,92452.69
2023-01-17T07:43:35.489Z,92456.13
2023-01-17T07:44:31.976Z,92452.97
2023-01-17T07:45:28.420Z,92442.97
2023-01-17T07:46:25.034Z,92446.84
2023-01-17T07:47:21.509Z,92446.28
2023-01-17T07:48:18.900Z,92448.75
2023-01-17T07:49:15.407Z,92438.31
2023-01-17T07:50:13.027Z,92439.84
2023-01-17T07:51:09.613Z,92438.94
2023-01-17T07:52:07.101Z,92444.84
2023-01-17T07:53:03.923Z,92447.16
2023-01-17T07:54:00.457Z,92448.94
2023-01-17T07:54:56.949Z,92446.47
2023-01-17T07:55:53.416Z,92452.44
2023-01-17T07:56:49.884Z,92455.47
2023-01-17T07:57:48.727Z,92466.72
2023-01-17T07:58:45.252Z,92459.28
2023-01-17T07:59:41.761Z,92464.94
2023-01-17T08:00:38.353Z,92458.03
2023-01-17T08:01:35.013Z,92456.03
2023-01-17T08:02:31.585Z,92471.47
2023-01-17T08:03:32.268Z,92478.16
2023-01-17T08:04:34.674Z,92469.56
2023-01-17T08:05:31.864Z,92480.06
2023-01-17T08:06:29.307Z,92469.09
2023-01-17T08:07:25.840Z,92466.59
2023-01-17T08:08:22.378Z,92469.66
2023-01-17T08:09:18.842Z,92460.19
2023-01-17T08:10:18.260Z,92461.91
2023-01-17T08:11:14.852Z,92458.72
2023-01-17T08:12:11.293Z,92461.94
2023-01-17T08:13:07.838Z,92458.09
2023-01-17T08:14:04.337Z,92459.72
2023-01-17T08:15:00.799Z,92454.22
2023-01-17T08:15:57.323Z,92450.66
2023-01-17T08:16:53.872Z,92453.41
2023-01-17T08:17:53.279Z,92447.34
2023-01-17T08:18:49.907Z,92444.59
2023-01-17T08:19:46.408Z,92449.31
2023-01-17T08:20:45.730Z,92465.06
2023-01-17T08:21:42.163Z,92453.97
2023-01-17T08:22:38.778Z,92451.47
2023-01-17T08:23:35.216Z,92461.16
2023-01-17T08:24:31.634Z,92459.84
2023-01-17T08:25:28.223Z,92463.94
2023-01-17T08:26:24.658Z,92457.44
2023-01-17T08:27:21.162Z,92463.16
2023-01-17T08:28:19.776Z,92462.28
2023-01-17T08:29:16.342Z,92466.91
2023-01-17T08:30:12.897Z,92471.13
2023-01-17T08:31:09.735Z,92474.13
2023-01-17T08:32:06.402Z,92465.34
2023-01-17T08:33:02.876Z,92482.25
2023-01-17T08:33:59.425Z,92479.16
2023-01-17T08:34:57.245Z,92483.53
2023-01-17T08:35:54.477Z,92482.91
2023-01-17T08:36:52.136Z,92482.63
2023-01-17T08:37:49.155Z,92485.72
2023-01-17T08:38:45.636Z,92473.16
2023-01-17T08:39:42.137Z,92473.00
2023-01-17T08:40:38.655Z,92470.63
2023-01-17T08:41:36.051Z,92481.19
2023-01-17T08:42:37.386Z,92472.75
2023-01-17T08:43:33.875Z,92479.25
2023-01-17T08:44:30.415Z,92478.94
2023-01-17T08:45:27.551Z,92485.03
2023-01-17T08:46:24.555Z,92484.34
2023-01-17T08:47:21.060Z,92488.38
2023-01-17T08:48:17.677Z,92501.88
2023-01-17T08:49:14.354Z,92498.84
2023-01-17T08:50:10.968Z,92498.41
2023-01-17T08:51:07.494Z,92495.59
2023-01-17T08:52:05.324Z,92500.41
2023-01-17T08:53:01.844Z,92510.56
2023-01-17T08:53:58.676Z,92509.13
2023-01-17T08:54:55.276Z,92511.00
2023-01-17T08:55:57.622Z,92490.50
2023-01-17T08:56:55.722Z,92487.50
2023-01-17T08:57:54.443Z,92485.97
2023-01-17T08:58:50.974Z,92496.59
2023-01-17T08:59:47.654Z,92496.56
2023-01-17T09:00:44.234Z,92487.75
2023-01-17T09:01:42.072Z,92475.16
2023-01-17T09:02:38.730Z,92484.88
2023-01-17T09:03:35.268Z,92486.03
2023-01-17T09:04:31.785Z,92491.38
2023-01-17T09:05:30.471Z,92489.06
2023-01-17T09:06:27.103Z,92486.66
2023-01-17T09:07:24.482Z,92484.69
2023-01-17T09:08:20.989Z,92495.91
2023-01-17T09:09:17.761Z,92490.63
2023-01-17T09:10:14.324Z,92488.38
2023-01-17T09:11:11.757Z,92489.22
2023-01-17T09:12:08.424Z,92518.84
2023-01-17T09:13:08.091Z,92502.44
2023-01-17T09:14:04.539Z,92492.88
2023-01-17T09:15:02.382Z,92489.50
2023-01-17T09:15:59.559Z,92488.66
2023-01-17T09:16:56.062Z,92492.63
2023-01-17T09:17:56.748Z,92490.59
2023-01-17T09:18:54.250Z,92491.06
2023-01-17T09:19:51.354Z,92486.41
2023-01-17T09:20:49.759Z,92487.53
2023-01-17T09:21:46.267Z,92484.44
2023-01-17T09:22:42.805Z,92495.28
2023-01-17T09:23:39.433Z,92487.22
2023-01-17T09:24:35.965Z,92488.22
2023-01-17T09:25:32.475Z,92479.84
2023-01-17T09:26:30.060Z,92490.78
2023-01-17T09:27:26.509Z,92487.88
2023-01-17T09:28:23.678Z,92493.28
2023-01-17T09:29:20.264Z,92494.22
2023-01-17T09:30:17.037Z,92498.06
2023-01-17T09:31:15.032Z,92484.03
2023-01-17T09:32:13.123Z,92487.44
2023-01-17T09:33:09.649Z,92493.97
2023-01-17T09:34:06.082Z,92485.19
2023-01-17T09:35:03.334Z,92484.78
2023-01-17T09:36:04.508Z,92501.13
2023-01-17T09:37:01.067Z,92492.25
2023-01-17T09:37:58.304Z,92493.44
2023-01-17T09:38:58.073Z,92498.44
2023-01-17T09:39:54.572Z,92486.06
2023-01-17T09:40:51.211Z,92485.56
2023-01-17T09:41:50.486Z,92486.69
2023-01-17T09:42:50.589Z,92486.38
2023-01-17T09:43:50.436Z,92474.16
2023-01-17T09:44:49.007Z,92474.41
2023-01-17T09:45:45.554Z,92479.41
2023-01-17T09:46:43.943Z,92477.91
2023-01-17T09:47:42.669Z,92469.53
2023-01-17T09:48:39.930Z,92466.56
2023-01-17T09:49:42.270Z,92468.81
2023-01-17T09:50:50.534Z,92477.22
2023-01-17T09:51:47.135Z,92483.38
2023-01-17T09:52:44.241Z,92475.06
2023-01-17T09:53:41.747Z,92476.19
2023-01-17T09:54:40.876Z,92474.28
2023-01-17T09:55:41.708Z,92470.03
2023-01-17T09:56:42.733Z,92475.69
2023-01-17T09:58:00.495Z,92477.25
2023-01-17T09:59:02.887Z,92475.00
2023-01-17T10:00:05.892Z,92481.09
2023-01-17T10:01:15.703Z,92480.31
2023-01-17T10:02:32.380Z,92476.59
2023-01-17T10:03:29.059Z,92480.47
2023-01-17T10:04:40.347Z,92481.94
2023-01-17T10:05:45.656Z,92477.78
2023-01-17T10:06:45.367Z,92479.28
2023-01-17T10:08:04.926Z,92477.78
2023-01-17T10:09:19.839Z,92475.22
2023-01-17T10:10:29.315Z,92472.81
2023-01-17T10:11:41.518Z,92464.13
2023-01-17T10:12:55.174Z,92464.94
2023-01-17T10:13:54.780Z,92476.38
2023-01-17T10:14:57.141Z,92471.81
2023-01-17T10:15:56.549Z,92469.28
2023-01-17T10:16:58.981Z,92477.22
2023-01-17T10:17:55.433Z,92475.66
2023-01-17T10:19:04.356Z,92467.34
2023-01-17T10:20:04.311Z,92475.69
2023-01-17T10:21:04.626Z,92468.44
2023-01-17T10:22:02.290Z,92473.84
2023-01-17T10:23:18.062Z,92470.47
2023-01-17T10:24:37.883Z,92466.63
2023-01-17T10:25:42.960Z,92479.59
2023-01-17T10:26:39.662Z,92465.09
2023-01-17T10:27:41.977Z,92471.06
2023-01-17T10:28:42.398Z,92466.56
2023-01-17T10:29:41.272Z,92477.28
2023-01-17T10:30:45.080Z,92474.25
2023-01-17T10:31:45.611Z,92469.22
2023-01-17T10:32:45.784Z,92477.56
2023-01-17T10:33:50.783Z,92473.72
2023-01-17T10:34:51.517Z,92471.22
2023-01-17T10:36:10.241Z,92467.72
2023-01-17T10:37:18.373Z,92471.88
2023-01-17T10:38:17.026Z,92464.31
2023-01-17T10:39:21.103Z,92467.06
2023-01-17T10:40:40.997Z,92467.38
2023-01-17T10:41:39.968Z,92471.19
2023-01-17T10:42:42.240Z,92461.28
2023-01-17T10:43:57.545Z,92463.94
2023-01-17T10:45:04.242Z,92461.69
2023-01-17T10:46:01.517Z,92462.81
2023-01-17T10:46:58.025Z,92453.72
2023-01-17T10:48:12.832Z,92457.91
2023-01-17T10:49:16.737Z,92312.44
2023-01-17T10:50:13.486Z,92458.72
2023-01-17T10:51:19.624Z,92451.13
2023-01-17T10:52:16.667Z,92448.47
2023-01-17T10:53:20.671Z,92441.28
2023-01-17T10:54:44.274Z,92446.97
2023-01-17T10:55:53.369Z,92449.25
2023-01-17T10:56:49.950Z,92448.50
2023-01-17T10:57:48.313Z,92449.31
2023-01-17T10:58:48.172Z,92456.94
2023-01-17T10:59:45.242Z,92443.22
2023-01-17T11:00:50.845Z,92450.81
2023-01-17T11:01:49.193Z,92447.78
2023-01-17T11:02:50.625Z,92442.84
2023-01-17T11:03:51.220Z,92445.13
2023-01-17T11:04:51.091Z,92437.91
2023-01-17T11:06:08.378Z,92439.81
2023-01-17T11:07:11.340Z,92441.75
2023-01-17T11:08:08.641Z,92428.38
2023-01-17T11:09:11.859Z,92431.81
2023-01-17T11:10:28.313Z,92423.81
2023-01-17T11:11:26.284Z,92427.72
2023-01-17T11:12:22.793Z,92423.50
2023-01-17T11:13:25.339Z,92420.09
2023-01-17T11:14:26.145Z,92424.28
2023-01-17T11:15:25.977Z,92416.31
2023-01-17T11:16:27.615Z,92412.09
2023-01-17T11:17:25.172Z,92400.69
2023-01-17T11:18:22.503Z,92409.84
2023-01-17T11:19:30.510Z,92410.63
2023-01-17T11:20:34.048Z,92417.09
2023-01-17T11:21:30.843Z,92409.47
2023-01-17T11:22:27.547Z,92406.41
2023-01-17T11:23:29.446Z,92401.47
2023-01-17T11:24:35.293Z,92402.94
2023-01-17T11:25:35.792Z,92414.00
2023-01-17T11:26:34.402Z,92408.28
2023-01-17T11:27:30.846Z,92407.53
2023-01-17T11:28:30.468Z,92399.53
2023-01-17T11:29:31.150Z,92405.63
2023-01-17T11:30:30.350Z,92402.56
2023-01-17T11:31:27.405Z,92389.22
2023-01-17T11:32:26.868Z,92385.41
2023-01-17T11:33:47.008Z,92389.25
2023-01-17T11:34:43.473Z,92398.03
2023-01-17T11:35:46.250Z,92390.38
2023-01-17T11:36:43.188Z,92385.81
2023-01-17T11:37:48.724Z,92379.72
2023-01-17T11:38:59.421Z,92386.97
2023-01-17T11:40:06.938Z,92375.53
2023-01-17T11:41:20.345Z,92374.00
2023-01-17T11:42:38.458Z,92372.47
2023-01-17T11:43:48.725Z,92369.81
2023-01-17T11:44:45.218Z,92367.91
2023-01-17T11:45:41.767Z,92364.09